sensor_id;sensor_type;location;lat;lon;timestamp;pressure;altitude;pressure_sealevel;temperature;humidity
56392;BME280;42289;53.582;9.714;2022-11-30T00:00:30;102542.03;;;3.87;100.00
56392;BME280;42289;53.582;9.714;2022-11-30T00:02:57;102536.88;;;3.87;100.00
56392;BME280;42289;53.582;9.714;2022-11-30T00:05:24;102541.06;;;3.82;100.00
56392;BME280;42289;53.582;9.714;2022-11-30T00:07:50;102541.97;;;3.84;100.00
56392;BME280;42289;53.582;9.714;2022-11-30T00:10:18;102549.72;;;3.85;100.00
56392;BME280;42289;53.582;9.714;2022-11-30T00:12:45;102546.28;;;3.83;100.00
56392;BME280;42289;53.582;9.714;2022-11-30T00:15:13;102546.28;;;3.83;100.00
56392;BME280;42289;53.582;9.714;2022-11-30T00:17:41;102547.16;;;3.85;100.00
56392;BME280;42289;53.582;9.714;2022-11-30T00:20:10;102548.84;;;3.83;100.00
56392;BME280;42289;53.582;9.714;2022-11-30T00:22:37;102548.88;;;3.85;100.00
56392;BME280;42289;53.582;9.714;2022-11-30T00:25:03;102547.16;;;3.85;100.00
56392;BME280;42289;53.582;9.714;2022-11-30T00:27:31;102553.16;;;3.86;100.00
56392;BME280;42289;53.582;9.714;2022-11-30T00:29:57;102544.63;;;3.88;100.00
56392;BME280;42289;53.582;9.714;2022-11-30T00:32:25;102554.88;;;3.87;100.00
56392;BME280;42289;53.582;9.714;2022-11-30T00:34:52;102553.16;;;3.86;100.00
56392;BME280;42289;53.582;9.714;2022-11-30T00:37:20;102554.13;;;3.93;100.00
56392;BME280;42289;53.582;9.714;2022-11-30T00:39:47;102555.81;;;3.91;100.00
56392;BME280;42289;53.582;9.714;2022-11-30T00:42:13;102562.59;;;3.85;100.00
56392;BME280;42289;53.582;9.714;2022-11-30T00:44:40;102567.69;;;3.82;100.00
56392;BME280;42289;53.582;9.714;2022-11-30T00:47:06;102559.19;;;3.88;100.00
56392;BME280;42289;53.582;9.714;2022-11-30T00:49:33;102560.97;;;3.92;100.00
56392;BME280;42289;53.582;9.714;2022-11-30T00:51:59;102552.28;;;3.84;100.00
56392;BME280;42289;53.582;9.714;2022-11-30T00:54:27;102539.44;;;3.85;100.00
56392;BME280;42289;53.582;9.714;2022-11-30T00:56:54;102536.91;;;3.88;100.00
56392;BME280;42289;53.582;9.714;2022-11-30T00:59:20;102528.25;;;3.83;100.00
56392;BME280;42289;53.582;9.714;2022-11-30T01:01:46;102535.19;;;3.87;100.00
56392;BME280;42289;53.582;9.714;2022-11-30T01:04:13;102530.00;;;3.86;100.00
56392;BME280;42289;53.582;9.714;2022-11-30T01:06:39;102542.09;;;3.90;100.00
56392;BME280;42289;53.582;9.714;2022-11-30T01:09:06;102536.97;;;3.92;100.00
56392;BME280;42289;53.582;9.714;2022-11-30T01:11:34;102541.22;;;3.90;100.00
56392;BME280;42289;53.582;9.714;2022-11-30T01:14:01;102536.03;;;3.88;100.00
56392;BME280;42289;53.582;9.714;2022-11-30T01:16:29;102548.13;;;3.92;100.00
56392;BME280;42289;53.582;9.714;2022-11-30T01:18:56;102549.81;;;3.90;100.00
56392;BME280;42289;53.582;9.714;2022-11-30T01:21:24;102548.16;;;3.95;100.00
56392;BME280;42289;53.582;9.714;2022-11-30T01:23:51;102541.22;;;3.91;100.00
56392;BME280;42289;53.582;9.714;2022-11-30T01:26:18;102547.19;;;3.88;100.00
56392;BME280;42289;53.582;9.714;2022-11-30T01:28:50;102541.22;;;3.90;100.00
56392;BME280;42289;53.582;9.714;2022-11-30T01:31:18;102532.63;;;3.89;100.00
56392;BME280;42289;53.582;9.714;2022-11-30T01:33:47;102534.31;;;3.88;100.00
56392;BME280;42289;53.582;9.714;2022-11-30T01:36:16;102536.81;;;3.82;100.00
56392;BME280;42289;53.582;9.714;2022-11-30T01:38:44;102534.31;;;3.87;100.00
56392;BME280;42289;53.582;9.714;2022-11-30T01:41:13;102525.72;;;3.85;100.00
56392;BME280;42289;53.582;9.714;2022-11-30T01:43:41;102519.75;;;3.87;100.00
56392;BME280;42289;53.582;9.714;2022-11-30T01:46:28;102513.69;;;3.85;100.00
56392;BME280;42289;53.582;9.714;2022-11-30T01:49:01;102519.75;;;3.87;100.00
56392;BME280;42289;53.582;9.714;2022-11-30T01:51:31;102519.63;;;3.81;100.00
56392;BME280;42289;53.582;9.714;2022-11-30T01:54:00;102520.50;;;3.82;100.00
56392;BME280;42289;53.582;9.714;2022-11-30T01:56:27;102512.75;;;3.80;100.00
56392;BME280;42289;53.582;9.714;2022-11-30T01:58:54;102518.84;;;3.85;100.00
56392;BME280;42289;53.582;9.714;2022-11-30T02:01:20;102517.91;;;3.80;100.00
56392;BME280;42289;53.582;9.714;2022-11-30T02:03:53;102517.03;;;3.80;100.00
56392;BME280;42289;53.582;9.714;2022-11-30T02:06:22;102528.19;;;3.80;100.00
56392;BME280;42289;53.582;9.714;2022-11-30T02:08:50;102528.19;;;3.80;100.00
56392;BME280;42289;53.582;9.714;2022-11-30T02:11:17;102536.78;;;3.79;100.00
56392;BME280;42289;53.582;9.714;2022-11-30T02:13:55;102533.31;;;3.79;100.00
56392;BME280;42289;53.582;9.714;2022-11-30T02:16:26;102536.84;;;3.84;100.00
56392;BME280;42289;53.582;9.714;2022-11-30T02:19:04;102530.00;;;3.86;100.00
56392;BME280;42289;53.582;9.714;2022-11-30T02:21:40;102526.50;;;3.81;100.00
56392;BME280;42289;53.582;9.714;2022-11-30T02:24:22;102526.47;;;3.79;100.00
56392;BME280;42289;53.582;9.714;2022-11-30T02:27:09;102524.81;;;3.83;100.00
56392;BME280;42289;53.582;9.714;2022-11-30T02:29:42;102525.69;;;3.83;100.00
56392;BME280;42289;53.582;9.714;2022-11-30T02:32:16;102532.53;;;3.83;100.00
56392;BME280;42289;53.582;9.714;2022-11-30T02:34:45;102543.56;;;3.76;100.00
56392;BME280;42289;53.582;9.714;2022-11-30T02:37:13;102550.56;;;3.86;100.00
56392;BME280;42289;53.582;9.714;2022-11-30T02:39:41;102549.56;;;3.76;100.00
56392;BME280;42289;53.582;9.714;2022-11-30T02:42:09;102551.22;;;3.73;100.00
56392;BME280;42289;53.582;9.714;2022-11-30T02:44:36;102543.63;;;3.80;100.00
56392;BME280;42289;53.582;9.714;2022-11-30T02:47:16;102542.75;;;3.78;100.00
56392;BME280;42289;53.582;9.714;2022-11-30T02:49:48;102548.78;;;3.82;100.00
56392;BME280;42289;53.582;9.714;2022-11-30T02:52:18;102538.47;;;3.80;100.00
56392;BME280;42289;53.582;9.714;2022-11-30T02:54:47;102548.78;;;3.82;100.00
56392;BME280;42289;53.582;9.714;2022-11-30T02:57:14;102545.34;;;3.80;100.00
56392;BME280;42289;53.582;9.714;2022-11-30T02:59:40;102547.94;;;3.81;100.00
56392;BME280;42289;53.582;9.714;2022-11-30T03:02:07;102546.13;;;3.76;100.00
56392;BME280;42289;53.582;9.714;2022-11-30T03:04:34;102555.63;;;3.80;100.00
56392;BME280;42289;53.582;9.714;2022-11-30T03:07:01;102553.06;;;3.81;100.00
56392;BME280;42289;53.582;9.714;2022-11-30T03:09:27;102557.25;;;3.75;100.00
56392;BME280;42289;53.582;9.714;2022-11-30T03:11:54;102563.31;;;3.77;100.00
56392;BME280;42289;53.582;9.714;2022-11-30T03:14:20;102570.94;;;3.74;100.00
56392;BME280;42289;53.582;9.714;2022-11-30T03:16:47;102559.84;;;3.76;100.00
56392;BME280;42289;53.582;9.714;2022-11-30T03:19:13;102569.31;;;3.79;100.00
56392;BME280;42289;53.582;9.714;2022-11-30T03:21:41;102565.91;;;3.80;100.00
56392;BME280;42289;53.582;9.714;2022-11-30T03:24:07;102565.91;;;3.78;100.00
56392;BME280;42289;53.582;9.714;2022-11-30T03:26:34;102556.50;;;3.82;100.00
56392;BME280;42289;53.582;9.714;2022-11-30T03:29:01;102564.97;;;3.75;100.00
56392;BME280;42289;53.582;9.714;2022-11-30T03:31:27;102570.16;;;3.78;100.00
56392;BME280;42289;53.582;9.714;2022-11-30T03:33:53;102574.44;;;3.77;100.00
56392;BME280;42289;53.582;9.714;2022-11-30T03:36:20;102567.66;;;3.81;100.00
56392;BME280;42289;53.582;9.714;2022-11-30T03:38:48;102564.19;;;3.79;100.00
56392;BME280;42289;53.582;9.714;2022-11-30T03:41:15;102556.44;;;3.77;100.00
56392;BME280;42289;53.582;9.714;2022-11-30T03:43:42;102562.44;;;3.78;100.00
56392;BME280;42289;53.582;9.714;2022-11-30T03:46:09;102551.34;;;3.82;100.00
56392;BME280;42289;53.582;9.714;2022-11-30T03:48:35;102548.94;;;3.90;100.00
56392;BME280;42289;53.582;9.714;2022-11-30T03:51:02;102559.97;;;3.84;100.00
56392;BME280;42289;53.582;9.714;2022-11-30T03:53:30;102555.63;;;3.80;100.00
56392;BME280;42289;53.582;9.714;2022-11-30T03:55:59;102564.19;;;3.79;100.00
56392;BME280;42289;53.582;9.714;2022-11-30T03:58:26;102574.50;;;3.80;100.00
56392;BME280;42289;53.582;9.714;2022-11-30T04:00:58;102570.25;;;3.82;100.00
56392;BME280;42289;53.582;9.714;2022-11-30T04:03:25;102571.94;;;3.82;100.00
56392;BME280;42289;53.582;9.714;2022-11-30T04:05:51;102579.72;;;3.85;100.00
56392;BME280;42289;53.582;9.714;2022-11-30T04:08:18;102577.13;;;3.83;100.00
56392;BME280;42289;53.582;9.714;2022-11-30T04:10:45;102583.97;;;3.83;100.00
56392;BME280;42289;53.582;9.714;2022-11-30T04:13:13;102585.72;;;3.85;100.00
56392;BME280;42289;53.582;9.714;2022-11-30T04:15:39;102579.66;;;3.82;100.00
56392;BME280;42289;53.582;9.714;2022-11-30T04:18:06;102589.16;;;3.86;100.00
56392;BME280;42289;53.582;9.714;2022-11-30T04:20:32;102586.59;;;3.86;100.00
56392;BME280;42289;53.582;9.714;2022-11-30T04:22:58;102590.88;;;3.85;100.00
56392;BME280;42289;53.582;9.714;2022-11-30T04:25:25;102600.38;;;3.90;100.00
56392;BME280;42289;53.582;9.714;2022-11-30T04:27:51;102596.94;;;3.87;100.00
56392;BME280;42289;53.582;9.714;2022-11-30T04:30:19;102602.97;;;3.90;100.00
56392;BME280;42289;53.582;9.714;2022-11-30T04:32:46;102607.28;;;3.92;100.00
56392;BME280;42289;53.582;9.714;2022-11-30T04:35:12;102608.91;;;3.87;100.00
56392;BME280;42289;53.582;9.714;2022-11-30T04:37:38;102615.78;;;3.88;100.00
56392;BME280;42289;53.582;9.714;2022-11-30T04:40:08;102608.88;;;3.84;100.00
56392;BME280;42289;53.582;9.714;2022-11-30T04:42:34;102616.59;;;3.85;100.00
56392;BME280;42289;53.582;9.714;2022-11-30T04:45:01;102616.59;;;3.85;100.00
56392;BME280;42289;53.582;9.714;2022-11-30T04:47:29;102624.16;;;3.78;100.00
56392;BME280;42289;53.582;9.714;2022-11-30T04:49:55;102625.19;;;3.86;100.00
56392;BME280;42289;53.582;9.714;2022-11-30T04:52:21;102624.28;;;3.82;100.00
56392;BME280;42289;53.582;9.714;2022-11-30T04:54:48;102622.59;;;3.84;100.00
56392;BME280;42289;53.582;9.714;2022-11-30T04:57:16;102624.25;;;3.81;100.00
56392;BME280;42289;53.582;9.714;2022-11-30T04:59:42;102628.63;;;3.85;100.00
56392;BME280;42289;53.582;9.714;2022-11-30T05:02:09;102638.16;;;3.91;100.00
56392;BME280;42289;53.582;9.714;2022-11-30T05:04:37;102642.47;;;3.93;100.00
56392;BME280;42289;53.582;9.714;2022-11-30T05:07:03;102634.63;;;3.85;100.00
56392;BME280;42289;53.582;9.714;2022-11-30T05:09:30;102644.94;;;3.88;100.00
56392;BME280;42289;53.582;9.714;2022-11-30T05:11:56;102654.38;;;3.86;100.00
56392;BME280;42289;53.582;9.714;2022-11-30T05:14:23;102657.78;;;3.87;100.00
56392;BME280;42289;53.582;9.714;2022-11-30T05:16:49;102662.13;;;3.90;100.00
56392;BME280;42289;53.582;9.714;2022-11-30T05:19:16;102670.66;;;3.87;100.00
56392;BME280;42289;53.582;9.714;2022-11-30T05:21:43;102666.50;;;3.94;100.00
56392;BME280;42289;53.582;9.714;2022-11-30T05:24:10;102674.13;;;3.87;100.00
56392;BME280;42289;53.582;9.714;2022-11-30T05:26:37;102663.72;;;3.83;100.00
56392;BME280;42289;53.582;9.714;2022-11-30T05:29:04;102677.50;;;3.85;100.00
56392;BME280;42289;53.582;9.714;2022-11-30T05:31:31;102679.97;;;3.82;100.00
56392;BME280;42289;53.582;9.714;2022-11-30T05:33:57;102686.81;;;3.80;100.00
56392;BME280;42289;53.582;9.714;2022-11-30T05:36:24;102680.75;;;3.78;100.00
56392;BME280;42289;53.582;9.714;2022-11-30T05:38:51;102692.00;;;3.83;100.00
56392;BME280;42289;53.582;9.714;2022-11-30T05:41:18;102695.41;;;3.82;100.00
56392;BME280;42289;53.582;9.714;2022-11-30T05:43:44;102692.91;;;3.83;100.00
56392;BME280;42289;53.582;9.714;2022-11-30T05:46:11;102696.31;;;3.84;100.00
56392;BME280;42289;53.582;9.714;2022-11-30T05:48:37;102697.91;;;3.77;100.00
56392;BME280;42289;53.582;9.714;2022-11-30T05:51:04;102697.19;;;3.84;100.00
56392;BME280;42289;53.582;9.714;2022-11-30T05:53:31;102691.13;;;3.81;100.00
56392;BME280;42289;53.582;9.714;2022-11-30T05:56:02;102694.63;;;3.86;100.00
56392;BME280;42289;53.582;9.714;2022-11-30T05:58:28;102698.91;;;3.84;100.00
56392;BME280;42289;53.582;9.714;2022-11-30T06:00:55;102703.25;;;3.86;100.00
56392;BME280;42289;53.582;9.714;2022-11-30T06:03:21;102712.66;;;3.86;100.00
56392;BME280;42289;53.582;9.714;2022-11-30T06:05:48;102720.25;;;3.80;100.00
56392;BME280;42289;53.582;9.714;2022-11-30T06:08:15;102718.56;;;3.82;100.00
56392;BME280;42289;53.582;9.714;2022-11-30T06:10:42;102713.41;;;3.80;100.00
56392;BME280;42289;53.582;9.714;2022-11-30T06:13:09;102724.69;;;3.87;100.00
56392;BME280;42289;53.582;9.714;2022-11-30T06:15:36;102722.03;;;3.82;100.00
56392;BME280;42289;53.582;9.714;2022-11-30T06:18:03;102722.84;;;3.81;100.00
56392;BME280;42289;53.582;9.714;2022-11-30T06:20:30;102728.84;;;3.80;100.00
56392;BME280;42289;53.582;9.714;2022-11-30T06:22:56;102734.75;;;3.76;100.00
56392;BME280;42289;53.582;9.714;2022-11-30T06:25:23;102740.91;;;3.83;100.00
56392;BME280;42289;53.582;9.714;2022-11-30T06:27:49;102744.28;;;3.82;100.00
56392;BME280;42289;53.582;9.714;2022-11-30T06:30:17;102741.63;;;3.77;100.00
56392;BME280;42289;53.582;9.714;2022-11-30T06:32:44;102745.13;;;3.79;100.00
56392;BME280;42289;53.582;9.714;2022-11-30T06:35:10;102745.00;;;3.75;100.00
56392;BME280;42289;53.582;9.714;2022-11-30T06:37:37;102744.25;;;3.79;100.00
56392;BME280;42289;53.582;9.714;2022-11-30T06:40:04;102752.84;;;3.79;100.00
56392;BME280;42289;53.582;9.714;2022-11-30T06:42:31;102753.78;;;3.84;100.00
56392;BME280;42289;53.582;9.714;2022-11-30T06:44:58;102752.91;;;3.82;100.00
56392;BME280;42289;53.582;9.714;2022-11-30T06:47:26;102752.00;;;3.82;100.00
56392;BME280;42289;53.582;9.714;2022-11-30T06:49:53;102747.81;;;3.85;100.00
56392;BME280;42289;53.582;9.714;2022-11-30T06:52:19;102749.34;;;3.77;100.00
56392;BME280;42289;53.582;9.714;2022-11-30T06:54:46;102751.00;;;3.75;100.00
56392;BME280;42289;53.582;9.714;2022-11-30T06:57:12;102758.81;;;3.78;100.00
56392;BME280;42289;53.582;9.714;2022-11-30T06:59:39;102754.59;;;3.82;100.00
56392;BME280;42289;53.582;9.714;2022-11-30T07:02:08;102760.66;;;3.85;100.00
56392;BME280;42289;53.582;9.714;2022-11-30T07:04:37;102758.94;;;3.86;100.00
56392;BME280;42289;53.582;9.714;2022-11-30T07:07:04;102757.25;;;3.85;100.00
56392;BME280;42289;53.582;9.714;2022-11-30T07:09:31;102777.78;;;3.83;100.00
56392;BME280;42289;53.582;9.714;2022-11-30T07:12:09;102770.94;;;3.84;100.00
56392;BME280;42289;53.582;9.714;2022-11-30T07:14:36;102770.91;;;3.82;100.00
56392;BME280;42289;53.582;9.714;2022-11-30T07:17:03;102770.03;;;3.82;100.00
56392;BME280;42289;53.582;9.714;2022-11-30T07:19:30;102771.78;;;3.84;100.00
56392;BME280;42289;53.582;9.714;2022-11-30T07:21:58;102767.50;;;3.83;100.00
56392;BME280;42289;53.582;9.714;2022-11-30T07:24:24;102777.06;;;3.91;100.00
56392;BME280;42289;53.582;9.714;2022-11-30T07:27:08;102772.78;;;3.91;100.00
56392;BME280;42289;53.582;9.714;2022-11-30T07:29:35;102775.34;;;3.90;100.00
56392;BME280;42289;53.582;9.714;2022-11-30T07:32:01;102768.53;;;3.92;100.00
56392;BME280;42289;53.582;9.714;2022-11-30T07:34:28;102776.53;;;4.06;100.00
56392;BME280;42289;53.582;9.714;2022-11-30T07:36:54;102771.38;;;4.06;100.00
56392;BME280;42289;53.582;9.714;2022-11-30T07:39:22;102771.31;;;4.02;100.00
56392;BME280;42289;53.582;9.714;2022-11-30T07:41:49;102773.81;;;3.99;100.00
56392;BME280;42289;53.582;9.714;2022-11-30T07:44:15;102778.03;;;3.96;100.00
56392;BME280;42289;53.582;9.714;2022-11-30T07:46:41;102784.81;;;3.92;100.00
56392;BME280;42289;53.582;9.714;2022-11-30T07:49:09;102779.78;;;3.97;100.00
56392;BME280;42289;53.582;9.714;2022-11-30T07:51:35;102788.34;;;3.96;100.00
56392;BME280;42289;53.582;9.714;2022-11-30T07:54:02;102790.25;;;4.06;100.00
56392;BME280;42289;53.582;9.714;2022-11-30T07:56:30;102790.38;;;4.12;100.00
56392;BME280;42289;53.582;9.714;2022-11-30T07:58:58;102784.06;;;3.98;100.00
56392;BME280;42289;53.582;9.714;2022-11-30T08:01:26;102790.16;;;4.01;100.00
56392;BME280;42289;53.582;9.714;2022-11-30T08:03:53;102794.50;;;4.04;100.00
56392;BME280;42289;53.582;9.714;2022-11-30T08:06:22;102797.06;;;4.02;100.00
56392;BME280;42289;53.582;9.714;2022-11-30T08:08:51;102786.00;;;4.07;100.00
56392;BME280;42289;53.582;9.714;2022-11-30T08:11:19;102784.41;;;4.13;100.00
56392;BME280;42289;53.582;9.714;2022-11-30T08:13:47;102776.47;;;4.02;100.00
56392;BME280;42289;53.582;9.714;2022-11-30T08:16:15;102776.34;;;3.98;100.00
56392;BME280;42289;53.582;9.714;2022-11-30T08:18:42;102780.00;;;4.08;100.00
56392;BME280;42289;53.582;9.714;2022-11-30T08:21:11;102771.31;;;4.02;100.00
56392;BME280;42289;53.582;9.714;2022-11-30T08:23:40;102780.81;;;4.05;100.00
56392;BME280;42289;53.582;9.714;2022-11-30T08:26:09;102779.06;;;4.04;100.00
56392;BME280;42289;53.582;9.714;2022-11-30T08:28:36;102777.97;;;3.93;100.00
56392;BME280;42289;53.582;9.714;2022-11-30T08:31:06;102779.72;;;3.95;100.00
56392;BME280;42289;53.582;9.714;2022-11-30T08:33:34;102778.06;;;3.97;100.00
56392;BME280;42289;53.582;9.714;2022-11-30T08:36:06;102779.84;;;4.00;100.00
56392;BME280;42289;53.582;9.714;2022-11-30T08:38:33;102789.53;;;4.12;100.00
56392;BME280;42289;53.582;9.714;2022-11-30T08:41:00;102779.88;;;4.01;100.00
56392;BME280;42289;53.582;9.714;2022-11-30T08:43:26;102783.41;;;4.07;100.00
56392;BME280;42289;53.582;9.714;2022-11-30T08:45:53;102784.47;;;4.16;100.00
56392;BME280;42289;53.582;9.714;2022-11-30T08:48:20;102784.19;;;4.02;100.00
56392;BME280;42289;53.582;9.714;2022-11-30T08:50:47;102782.50;;;4.04;100.00
56392;BME280;42289;53.582;9.714;2022-11-30T08:53:14;102786.00;;;4.08;100.00
56392;BME280;42289;53.582;9.714;2022-11-30T08:55:40;102783.44;;;4.08;100.00
56392;BME280;42289;53.582;9.714;2022-11-30T08:58:07;102785.19;;;4.09;100.00
56392;BME280;42289;53.582;9.714;2022-11-30T09:00:33;102785.25;;;4.14;100.00
56392;BME280;42289;53.582;9.714;2022-11-30T09:02:59;102778.19;;;4.03;100.00
56392;BME280;42289;53.582;9.714;2022-11-30T09:05:27;102780.91;;;4.10;100.00
56392;BME280;42289;53.582;9.714;2022-11-30T09:07:54;102792.81;;;4.06;100.00
56392;BME280;42289;53.582;9.714;2022-11-30T09:10:20;102782.59;;;4.09;100.00
56392;BME280;42289;53.582;9.714;2022-11-30T09:12:46;102779.34;;;4.18;100.00
56392;BME280;42289;53.582;9.714;2022-11-30T09:15:13;102782.03;;;4.23;100.00
56392;BME280;42289;53.582;9.714;2022-11-30T09:17:39;102779.38;;;4.21;100.00
56392;BME280;42289;53.582;9.714;2022-11-30T09:20:06;102783.69;;;4.20;100.00
56392;BME280;42289;53.582;9.714;2022-11-30T09:22:34;102770.03;;;4.25;100.00
56392;BME280;42289;53.582;9.714;2022-11-30T09:25:01;102762.94;;;4.14;100.00
56392;BME280;42289;53.582;9.714;2022-11-30T09:27:30;102758.66;;;4.13;100.00
56392;BME280;42289;53.582;9.714;2022-11-30T09:29:57;102760.50;;;4.20;100.00
56392;BME280;42289;53.582;9.714;2022-11-30T09:32:24;102754.59;;;4.25;100.00
56392;BME280;42289;53.582;9.714;2022-11-30T09:34:50;102745.78;;;4.12;100.00
56392;BME280;42289;53.582;9.714;2022-11-30T09:37:16;102738.94;;;4.14;100.00
56392;BME280;42289;53.582;9.714;2022-11-30T09:39:44;102734.63;;;4.14;100.00
56392;BME280;42289;53.582;9.714;2022-11-30T09:42:23;102726.25;;;4.23;100.00
56392;BME280;42289;53.582;9.714;2022-11-30T09:44:59;102725.22;;;4.13;100.00
56392;BME280;42289;53.582;9.714;2022-11-30T09:47:53;102715.03;;;4.21;100.00
56392;BME280;42289;53.582;9.714;2022-11-30T09:50:27;102720.97;;;4.17;100.00
56392;BME280;42289;53.582;9.714;2022-11-30T09:52:57;102708.22;;;4.23;100.00
56392;BME280;42289;53.582;9.714;2022-11-30T09:55:29;102698.78;;;4.24;100.00
56392;BME280;42289;53.582;9.714;2022-11-30T09:58:00;102694.63;;;4.30;100.00
56392;BME280;42289;53.582;9.714;2022-11-30T10:00:28;102701.59;;;4.36;100.00
56392;BME280;42289;53.582;9.714;2022-11-30T10:02:56;102692.03;;;4.30;100.00
56392;BME280;42289;53.582;9.714;2022-11-30T10:05:26;102690.34;;;4.31;100.00
56392;BME280;42289;53.582;9.714;2022-11-30T10:08:05;102674.88;;;4.29;100.00
56392;BME280;42289;53.582;9.714;2022-11-30T10:10:39;102664.53;;;4.28;100.00
56392;BME280;42289;53.582;9.714;2022-11-30T10:13:24;102655.94;;;4.27;100.00
56392;BME280;42289;53.582;9.714;2022-11-30T10:16:01;102653.22;;;4.19;100.00
56392;BME280;42289;53.582;9.714;2022-11-30T10:18:39;102662.91;;;4.33;100.00
56392;BME280;42289;53.582;9.714;2022-11-30T10:21:22;102651.78;;;4.34;100.00
56392;BME280;42289;53.582;9.714;2022-11-30T10:24:10;102634.56;;;4.31;100.00
56392;BME280;42289;53.582;9.714;2022-11-30T10:26:44;102640.66;;;4.35;100.00
56392;BME280;42289;53.582;9.714;2022-11-30T10:29:18;102626.19;;;4.43;100.00
56392;BME280;42289;53.582;9.714;2022-11-30T10:31:46;102617.50;;;4.38;100.00
56392;BME280;42289;53.582;9.714;2022-11-30T10:34:19;102606.50;;;4.47;100.00
56392;BME280;42289;53.582;9.714;2022-11-30T10:36:50;102597.84;;;4.42;100.00
56392;BME280;42289;53.582;9.714;2022-11-30T10:39:21;102595.34;;;4.48;100.00
56392;BME280;42289;53.582;9.714;2022-11-30T10:41:54;102565.25;;;4.45;100.00
56392;BME280;42289;53.582;9.714;2022-11-30T10:44:25;102570.41;;;4.45;100.00
56392;BME280;42289;53.582;9.714;2022-11-30T10:46:58;102563.44;;;4.38;100.00
56392;BME280;42289;53.582;9.714;2022-11-30T10:49:27;102563.44;;;4.38;100.00
56392;BME280;42289;53.582;9.714;2022-11-30T10:51:58;102562.72;;;4.47;100.00
56392;BME280;42289;53.582;9.714;2022-11-30T10:54:28;102558.28;;;4.36;100.00
56392;BME280;42289;53.582;9.714;2022-11-30T10:56:57;102555.72;;;4.38;100.00
56392;BME280;42289;53.582;9.714;2022-11-30T10:59:31;102555.00;;;4.47;100.00
56392;BME280;42289;53.582;9.714;2022-11-30T11:01:59;102552.50;;;4.53;100.00
56392;BME280;42289;53.582;9.714;2022-11-30T11:04:26;102542.16;;;4.48;100.00
56392;BME280;42289;53.582;9.714;2022-11-30T11:06:55;102536.97;;;4.47;100.00
56392;BME280;42289;53.582;9.714;2022-11-30T11:09:28;102541.25;;;4.48;100.00
56392;BME280;42289;53.582;9.714;2022-11-30T11:11:59;102530.97;;;4.48;100.00
56392;BME280;42289;53.582;9.714;2022-11-30T11:14:27;102526.63;;;4.44;100.00
56392;BME280;42289;53.582;9.714;2022-11-30T11:16:56;102520.59;;;4.43;100.00
56392;BME280;42289;53.582;9.714;2022-11-30T11:19:32;102520.66;;;4.46;100.00
56392;BME280;42289;53.582;9.714;2022-11-30T11:22:01;102520.59;;;4.43;100.00
56392;BME280;42289;53.582;9.714;2022-11-30T11:24:28;102521.59;;;4.51;100.00
56392;BME280;42289;53.582;9.714;2022-11-30T11:26:56;102500.84;;;4.42;100.00
56392;BME280;42289;53.582;9.714;2022-11-30T11:29:27;102508.56;;;4.42;100.00
56392;BME280;42289;53.582;9.714;2022-11-30T11:34:52;102500.97;;;4.50;100.00
56392;BME280;42289;53.582;9.714;2022-11-30T11:37:22;102500.22;;;4.60;100.00
56392;BME280;42289;53.582;9.714;2022-11-30T11:40:04;102505.34;;;4.59;100.00
56392;BME280;42289;53.582;9.714;2022-11-30T11:42:41;102518.38;;;4.68;100.00
56392;BME280;42289;53.582;9.714;2022-11-30T11:45:16;102506.25;;;4.59;100.00
56392;BME280;42289;53.582;9.714;2022-11-30T11:47:44;102501.97;;;4.63;100.00
56392;BME280;42289;53.582;9.714;2022-11-30T11:50:24;102495.72;;;4.44;100.00
56392;BME280;42289;53.582;9.714;2022-11-30T11:53:16;102501.69;;;4.41;100.00
56392;BME280;42289;53.582;9.714;2022-11-30T11:55:52;102512.91;;;4.45;100.00
56392;BME280;42289;53.582;9.714;2022-11-30T11:58:25;102507.75;;;4.45;100.00
56392;BME280;42289;53.582;9.714;2022-11-30T12:01:03;102503.50;;;4.47;100.00
56392;BME280;42289;53.582;9.714;2022-11-30T12:03:36;102508.59;;;4.45;100.00
56392;BME280;42289;53.582;9.714;2022-11-30T12:06:08;102499.13;;;4.43;100.00
56392;BME280;42289;53.582;9.714;2022-11-30T12:08:42;102507.78;;;4.48;100.00
56392;BME280;42289;53.582;9.714;2022-11-30T12:11:13;102503.47;;;4.45;100.00
56392;BME280;42289;53.582;9.714;2022-11-30T12:13:44;102503.44;;;4.42;100.00
56392;BME280;42289;53.582;9.714;2022-11-30T12:16:22;102506.16;;;4.54;100.00
56392;BME280;42289;53.582;9.714;2022-11-30T12:18:56;102501.84;;;4.52;100.00
56392;BME280;42289;53.582;9.714;2022-11-30T12:21:34;102495.53;;;4.31;100.00
56392;BME280;42289;53.582;9.714;2022-11-30T12:24:17;102491.38;;;4.40;100.00
56392;BME280;42289;53.582;9.714;2022-11-30T12:26:52;102501.81;;;4.50;100.00
56392;BME280;42289;53.582;9.714;2022-11-30T12:29:24;102509.63;;;4.55;100.00
56392;BME280;42289;53.582;9.714;2022-11-30T12:32:13;102521.59;;;4.53;100.00
56392;BME280;42289;53.582;9.714;2022-11-30T12:34:48;102530.22;;;4.53;100.00
56392;BME280;42289;53.582;9.714;2022-11-30T12:37:25;102530.22;;;4.55;100.00
56392;BME280;42289;53.582;9.714;2022-11-30T12:40:02;102535.38;;;4.53;100.00
56392;BME280;42289;53.582;9.714;2022-11-30T12:42:43;102534.31;;;4.42;100.00
56392;BME280;42289;53.582;9.714;2022-11-30T12:45:16;102536.09;;;4.46;100.00
56392;BME280;42289;53.582;9.714;2022-11-30T12:47:54;102532.59;;;4.43;100.00
56392;BME280;42289;53.582;9.714;2022-11-30T12:50:36;102536.03;;;4.42;100.00
56392;BME280;42289;53.582;9.714;2022-11-30T12:53:14;102533.50;;;4.43;100.00
56392;BME280;42289;53.582;9.714;2022-11-30T12:55:47;102531.72;;;4.41;100.00
56392;BME280;42289;53.582;9.714;2022-11-30T12:58:23;102532.56;;;4.40;100.00
56392;BME280;42289;53.582;9.714;2022-11-30T13:00:58;102531.75;;;4.44;100.00
56392;BME280;42289;53.582;9.714;2022-11-30T13:03:46;102523.97;;;4.37;100.00